This is the latest recevied weather packets stored in our database for station/object KF3BH. If no packets are shown the sender has not sent any weather packets the latest 10 day(s).
| Time | Temp. | Humidity | Pressure | Rain* | Wind** | Luminosity | Snow |
|---|---|---|---|---|---|---|---|
| 1777765825 | 8.33° C | 60% | 1013.3 hPa | 0 mm | - | 0 W/m² | - |
| 1777762825 | 9.44° C | 49% | 1013 hPa | 0 mm | - | 11 W/m² | - |
| 1777762225 | 10° C | 49% | 1013.1 hPa | 0 mm | - | 19 W/m² | - |
| 1777761625 | 10° C | 49% | 1013.1 hPa | 0 mm | - | 44 W/m² | - |
| 1777761025 | 10.56° C | 49% | 1012.9 hPa | 0 mm | - | 91 W/m² | - |
| 1777758626 | 10° C | 49% | 1012.9 hPa | 0 mm | - | 32 W/m² | - |
| 1777756225 | 12.22° C | 44% | 1012.4 hPa | 0 mm | - | 504 W/m² | - |
| 1777750225 | 12.22° C | 42% | 1013.3 hPa | 0 mm | - | 285 W/m² | - |
| 1777749625 | 12.22° C | 42% | 1013.4 hPa | 0 mm | - | 330 W/m² | - |
| 1777747225 | 11.11° C | 42% | 1013.8 hPa | 0 mm | - | 316 W/m² | - |
| 1777746626 | 11.11° C | 45% | 1013.7 hPa | 0 mm | - | 313 W/m² | - |
| 1777741825 | 10.56° C | 46% | 1013.8 hPa | 0 mm | - | 250 W/m² | - |
| 1777738225 | 10.56° C | 48% | 1014.2 hPa | 0 mm | - | 974 W/m² | - |
| 1777737625 | 10.56° C | 49% | 1014.2 hPa | 0 mm | - | 246 W/m² | - |
| 1777733425 | 9.44° C | 57% | 1014.4 hPa | 0 mm | - | 710 W/m² | - |
| 1777729225 | 7.22° C | 69% | 1014.8 hPa | 0 mm | - | 424 W/m² | - |
| 1777728625 | 6.67° C | 75% | 1014.8 hPa | 0 mm | - | 555 W/m² | - |
| 1777721425 | 3.33° C | 93% | 1014.8 hPa | 0 mm | - | 26 W/m² | - |
| 1777720825 | 3.33° C | 94% | 1014.9 hPa | 0 mm | - | 30 W/m² | - |
| 1777719624 | 2.78° C | 94% | 1014.7 hPa | 0 mm | - | 21 W/m² | - |
| 1777717825 | 2.78° C | 93% | 1014.5 hPa | 0 mm | - | 7 W/m² | - |
| 1777715426 | 3.33° C | 92% | 1014.3 hPa | 0 mm | - | 0 W/m² | - |
| 1777712425 | 4.44° C | 91% | 1013.6 hPa | 0 mm | - | 0 W/m² | - |
| 1777708225 | 5.56° C | 94% | 1013.1 hPa | 1.52 mm | - | 0 W/m² | - |
| 1777705225 | 7.22° C | 95% | 1012.2 hPa | 0.76 mm | - | 0 W/m² | - |
* Rain latest hour (hover to see other rain measurements)
** Current wind speed in m/s (hover to see current wind gust speed)